Terminal Aerodrome Forecast
Issued by NWS

Home | Current Version | Previous Version | Text Only | Print | Product List | Glossary On
Versions: 1 2 3 4 5 6 7 8 9 10 11 12 13 14 15 16 17 18 19 20 21 22 23 24 25 26 27 28 29 30 31 32 33 34 35 36
526
FTUS46 KLOX 271457 AAA
TAFLAX
TAF AMD
KLAX 271457Z 2715/2818 26006KT P6SM FEW005 FEW010 SCT180
     FM271700 25006KT P6SM SCT150
     FM272100 26013KT P6SM SCT120
     FM280400 26008KT P6SM SKC
     FM280900 VRB03KT P6SM BKN006
     FM281200 13004KT 6SM BR OVC008
     FM281600 23005KT P6SM SCT010=

USA.gov is the U.S. government's official web portal to all federal, state and local government web resources and services.